Terminal Aerodrome Forecast
Issued by NWS Portland, OR

Home | Current Version | Previous Version | Text Only | Print | Product List | Glossary On
Versions: 1 2 3 4 5 6 7 8 9 10 11 12 13 14 15 16 17 18 19 20 21 22 23 24 25 26 27 28 29 30 31 32 33 34 35 36 37 38 39 40
989
FTUS46 KPQR 181435 AAF
TAFSLE
TAF AMD
KSLE 181435Z 1815/1912 16010KT P6SM -RA FEW017 BKN030 OVC040
     FM181700 17010KT 5SM -RA BR OVC027
     FM182000 18011KT P6SM -RA OVC035
     FM190900 17003KT P6SM OVC050=

USA.gov is the U.S. government's official web portal to all federal, state and local government web resources and services.